Time;durP1;ratioP1;P1;durP2;ratioP2;P2;SDS_P1;SDS_P2;PMS_P1;PMS_P2;Temp;Humidity;BMP_temperature;BMP_pressure;BME280_temperature;BME280_humidity;BME280_pressure;Samples;Min_cycle;Max_cycle;Signal;HPM_P1;HPM_P2
2023/07/18 00:00:18;;;;;;;0.20;0.20;;;;;;;20.06;61.57;98696.72;4973186;28;20046;-91
2023/07/18 00:02:45;;;;;;;0.20;0.20;;;;;;;20.13;61.59;98705.31;4972115;28;20402;-91
2023/07/18 00:05:12;;;;;;;0.20;0.20;;;;;;;20.16;61.67;98710.16;4971950;28;20046;-89
2023/07/18 00:07:40;;;;;;;0.20;0.20;;;;;;;20.18;61.52;98701.59;4956010;28;20042;-91
2023/07/18 00:10:09;;;;;;;0.20;0.20;;;;;;;20.11;61.74;98686.44;4971915;28;20047;-90
2023/07/18 00:12:36;;;;;;;0.20;0.20;;;;;;;20.14;61.87;98702.25;4969115;28;20138;-90
2023/07/18 00:15:09;;;;;;;0.20;0.20;;;;;;;20.06;62.13;98699.47;4921983;29;20114;-90
2023/07/18 00:17:37;;;;;;;0.20;0.20;;;;;;;19.99;62.14;98694.44;4961422;28;20631;-91
2023/07/18 00:20:09;;;;;;;0.20;0.20;;;;;;;19.96;62.26;98697.00;4974869;28;20058;-90
2023/07/18 00:22:36;;;;;;;0.20;0.20;;;;;;;19.94;62.37;98701.97;4974779;28;20061;-89
2023/07/18 00:25:04;;;;;;;0.20;0.20;;;;;;;19.87;62.58;98686.78;4974094;28;20506;-90
2023/07/18 00:27:31;;;;;;;0.20;0.20;;;;;;;19.94;62.88;98699.25;4974397;28;20513;-89
2023/07/18 00:29:58;;;;;;;0.20;0.20;;;;;;;19.85;62.96;98688.22;4957158;28;20054;-90
2023/07/18 00:32:25;;;;;;;0.20;0.20;;;;;;;19.86;63.33;98698.88;4974807;28;20050;-91
2023/07/18 00:34:56;;;;;;;0.30;0.30;;;;;;;19.86;63.44;98704.34;4976395;28;20046;-90
2023/07/18 00:37:23;;;;;;;0.20;0.20;;;;;;;19.78;63.72;98685.16;4981622;28;20054;-90
2023/07/18 00:39:52;;;;;;;0.20;0.20;;;;;;;19.79;63.92;98705.91;4970262;28;20042;-91
2023/07/18 00:42:20;;;;;;;0.20;0.20;;;;;;;19.74;64.38;98704.09;4973094;28;20060;-90
2023/07/18 00:44:50;;;;;;;0.20;0.20;;;;;;;19.72;64.70;98692.66;4990373;28;20050;-91
2023/07/18 00:47:18;;;;;;;0.20;0.20;;;;;;;19.67;64.88;98687.31;4984823;28;20059;-90
2023/07/18 00:49:46;;;;;;;0.20;0.20;;;;;;;19.67;65.28;98679.09;4981563;28;20047;-88
2023/07/18 00:52:13;;;;;;;0.20;0.20;;;;;;;19.70;65.15;98684.78;4974950;28;20082;-88
2023/07/18 00:54:42;;;;;;;0.30;0.30;;;;;;;19.73;65.22;98680.59;4974152;28;20050;-91
2023/07/18 00:57:10;;;;;;;0.20;0.20;;;;;;;19.70;65.25;98668.34;4958018;28;20065;-92
2023/07/18 00:59:39;;;;;;;0.20;0.20;;;;;;;19.75;66.54;98667.41;4973925;28;20050;-90
2023/07/18 01:02:06;;;;;;;0.20;0.20;;;;;;;19.58;67.75;98664.53;4975354;28;20101;-89
2023/07/18 01:04:34;;;;;;;0.30;0.30;;;;;;;19.44;68.58;98659.09;4982845;28;20043;-89
2023/07/18 01:07:01;;;;;;;0.20;0.20;;;;;;;19.29;69.64;98649.34;4980430;28;20042;-91
2023/07/18 01:09:28;;;;;;;0.20;0.20;;;;;;;19.25;70.28;98662.84;4982361;28;20545;-91
2023/07/18 01:11:57;;;;;;;0.25;0.25;;;;;;;19.21;70.98;98642.69;4980629;28;20410;-90
2023/07/18 01:14:26;;;;;;;0.20;0.20;;;;;;;19.24;71.09;98647.56;4982937;28;20142;-89
2023/07/18 01:16:53;;;;;;;0.25;0.25;;;;;;;19.23;71.28;98647.88;4982689;28;20145;-89
2023/07/18 01:19:20;;;;;;;0.30;0.30;;;;;;;19.27;71.41;98629.72;4967323;28;20124;-91
2023/07/18 01:21:47;;;;;;;0.30;0.30;;;;;;;19.25;71.62;98627.28;4964592;28;20130;-90
2023/07/18 01:24:15;;;;;;;0.30;0.30;;;;;;;19.27;73.02;98621.50;4979748;28;20059;-90
2023/07/18 01:26:42;;;;;;;0.30;0.30;;;;;;;19.25;72.88;98612.81;4978009;28;20050;-90
2023/07/18 01:29:10;;;;;;;0.30;0.30;;;;;;;19.30;73.94;98599.00;4980583;28;20081;-90
2023/07/18 01:31:38;;;;;;;0.20;0.20;;;;;;;19.31;74.74;98595.13;4975676;28;20640;-90
2023/07/18 01:34:05;;;;;;;0.20;0.20;;;;;;;19.28;75.56;98584.81;5000938;28;20054;-90
2023/07/18 01:36:32;;;;;;;0.20;0.20;;;;;;;19.25;76.19;98588.19;4978706;28;20061;-89
2023/07/18 01:38:59;;;;;;;0.20;0.20;;;;;;;19.16;76.36;98590.84;4988506;28;20073;-89
2023/07/18 01:41:32;;;;;;;0.28;0.28;;;;;;;19.21;76.03;98589.91;5000415;28;20137;-90
2023/07/18 01:43:59;;;;;;;0.30;0.30;;;;;;;19.37;76.00;98591.16;4963005;28;20101;-91
2023/07/18 01:46:26;;;;;;;0.20;0.20;;;;;;;19.42;76.46;98588.31;4979487;28;20133;-91
2023/07/18 01:48:57;;;;;;;0.20;0.20;;;;;;;19.33;77.50;98586.63;4984915;28;20050;-89
2023/07/18 01:51:25;;;;;;;0.30;0.30;;;;;;;19.11;77.93;98587.44;4997816;28;20104;-91
2023/07/18 01:53:54;;;;;;;0.30;0.30;;;;;;;18.84;78.17;98583.69;4973223;28;20062;-91
2023/07/18 01:56:21;;;;;;;0.20;0.20;;;;;;;18.80;78.82;98588.16;4965291;28;20500;-90
2023/07/18 01:58:49;;;;;;;0.30;0.30;;;;;;;18.86;79.08;98594.31;4982972;28;20070;-92
2023/07/18 02:01:17;;;;;;;0.30;0.30;;;;;;;18.87;79.86;98588.53;4969162;28;20050;-92
2023/07/18 02:03:44;;;;;;;0.30;0.30;;;;;;;18.96;79.73;98586.66;4984136;28;20047;-92
2023/07/18 02:06:12;;;;;;;0.30;0.30;;;;;;;18.95;80.02;98581.53;4997247;28;20039;-89
2023/07/18 02:08:39;;;;;;;0.30;0.30;;;;;;;18.77;80.71;98575.91;4985087;28;20486;-89
2023/07/18 02:11:06;;;;;;;0.30;0.30;;;;;;;18.57;81.54;98576.34;4973770;28;20047;-90
2023/07/18 02:13:33;;;;;;;0.30;0.30;;;;;;;18.58;80.89;98580.69;4958627;28;20043;-89
2023/07/18 02:16:00;;;;;;;0.30;0.30;;;;;;;18.68;80.60;98580.47;4972671;28;20043;-91
2023/07/18 02:18:30;;;;;;;0.30;0.30;;;;;;;18.71;80.11;98573.56;4976198;28;20054;-90
2023/07/18 02:21:00;;;;;;;0.30;0.30;;;;;;;18.81;79.76;98574.19;4977080;28;20074;-91
2023/07/18 02:23:27;;;;;;;0.30;0.30;;;;;;;18.86;80.85;98573.25;4976490;28;20145;-92
2023/07/18 02:25:54;;;;;;;0.30;0.30;;;;;;;18.80;82.32;98566.28;4976396;28;20055;-91
2023/07/18 02:28:23;;;;;;;0.30;0.30;;;;;;;18.68;83.23;98574.19;4976723;28;20057;-90
2023/07/18 02:30:52;;;;;;;0.30;0.30;;;;;;;18.64;83.27;98568.53;4977097;28;20057;-91
2023/07/18 02:33:20;;;;;;;0.30;0.30;;;;;;;18.66;83.76;98565.50;4941951;29;20747;-91
2023/07/18 02:35:50;;;;;;;0.30;0.30;;;;;;;18.77;83.92;98562.25;4958971;29;20085;-92
2023/07/18 02:38:17;;;;;;;0.30;0.30;;;;;;;18.77;82.81;98575.13;4956873;29;20055;-90
2023/07/18 02:40:45;;;;;;;0.30;0.30;;;;;;;18.76;82.05;98570.75;4957985;29;20047;-90
2023/07/18 02:43:12;;;;;;;0.30;0.30;;;;;;;18.69;80.31;98567.63;4941688;29;20047;-92
2023/07/18 02:45:40;;;;;;;0.30;0.30;;;;;;;18.76;80.20;98560.66;4958266;29;20047;-90
2023/07/18 02:48:07;;;;;;;0.30;0.30;;;;;;;18.82;80.42;98558.59;4944628;29;20102;-91
2023/07/18 02:50:35;;;;;;;0.30;0.30;;;;;;;18.82;80.37;98564.88;4942631;29;20082;-91
2023/07/18 02:53:03;;;;;;;0.30;0.30;;;;;;;18.80;79.88;98560.81;4940532;29;20055;-90
2023/07/18 02:55:30;;;;;;;0.30;0.30;;;;;;;18.87;80.38;98560.41;4939387;29;20572;-91
2023/07/18 02:57:57;;;;;;;0.30;0.30;;;;;;;18.99;80.96;98561.47;4939008;29;20086;-90
2023/07/18 03:00:26;;;;;;;0.30;0.30;;;;;;;19.00;80.25;98548.59;4959176;28;20417;-90
2023/07/18 03:02:53;;;;;;;0.30;0.30;;;;;;;19.14;78.81;98557.56;4975311;28;20074;-91
2023/07/18 03:05:24;;;;;;;0.30;0.30;;;;;;;19.22;78.50;98562.25;4990117;28;20142;-90
2023/07/18 03:07:52;;;;;;;0.30;0.30;;;;;;;19.24;78.33;98553.72;4980373;28;20051;-90
2023/07/18 03:10:20;;;;;;;0.30;0.30;;;;;;;19.13;77.87;98546.91;4952379;28;20050;-91
2023/07/18 03:12:47;;;;;;;0.30;0.30;;;;;;;19.02;77.63;98544.44;4965509;28;20081;-91
2023/07/18 03:15:16;;;;;;;0.30;0.30;;;;;;;19.02;78.13;98544.44;4977519;28;20050;-90
2023/07/18 03:17:43;;;;;;;0.30;0.30;;;;;;;19.05;78.54;98546.53;4984216;28;20081;-90
2023/07/18 03:20:17;;;;;;;0.40;0.40;;;;;;;19.04;77.27;98541.38;4965663;28;20141;-91
2023/07/18 03:22:48;;;;;;;0.30;0.30;;;;;;;19.11;76.82;98549.94;4967923;28;20054;-89
2023/07/18 03:25:17;;;;;;;0.30;0.30;;;;;;;19.17;76.73;98554.19;4947456;28;20117;-86
2023/07/18 03:27:47;;;;;;;0.30;0.30;;;;;;;19.05;77.38;98546.53;4981859;28;20149;-87
2023/07/18 03:30:14;;;;;;;0.30;0.30;;;;;;;19.06;77.71;98544.59;4966379;28;20101;-88
2023/07/18 03:32:43;;;;;;;0.30;0.30;;;;;;;19.02;77.53;98549.09;4981535;28;20522;-86
2023/07/18 03:35:11;;;;;;;0.30;0.30;;;;;;;19.01;78.18;98542.78;4985633;28;20055;-89
2023/07/18 03:37:38;;;;;;;0.30;0.30;;;;;;;19.14;77.28;98553.97;4984311;28;20054;-89
2023/07/18 03:40:07;;;;;;;0.30;0.30;;;;;;;19.27;77.34;98533.97;4975875;28;20589;-88
2023/07/18 03:42:34;;;;;;;0.30;0.30;;;;;;;19.48;75.69;98526.03;4958463;28;20089;-92
2023/07/18 03:45:04;;;;;;;0.30;0.30;;;;;;;19.64;74.38;98526.41;4952860;29;20050;-86
2023/07/18 03:47:32;;;;;;;0.30;0.30;;;;;;;19.73;74.24;98523.75;4951310;29;20138;-88
2023/07/18 03:49:59;;;;;;;0.30;0.30;;;;;;;19.86;74.43;98529.09;4950046;29;20122;-87
2023/07/18 03:52:26;;;;;;;0.30;0.30;;;;;;;20.01;74.80;98527.88;4936575;29;20078;-86
2023/07/18 03:54:53;;;;;;;0.30;0.30;;;;;;;20.20;74.15;98521.28;4592408;28;10000254;-91
2023/07/18 03:57:20;;;;;;;0.30;0.30;;;;;;;20.32;74.46;98508.56;4952015;29;20047;-88
2023/07/18 03:59:48;;;;;;;0.30;0.30;;;;;;;20.50;73.44;98509.38;4948470;29;20058;-90
2023/07/18 04:02:15;;;;;;;0.30;0.30;;;;;;;20.51;72.82;98502.78;4942330;28;20047;-87
2023/07/18 04:04:42;;;;;;;0.30;0.30;;;;;;;20.58;72.08;98507.81;4969215;28;20573;-89
2023/07/18 04:07:10;;;;;;;0.30;0.30;;;;;;;20.54;71.73;98496.69;4968228;28;20082;-86
2023/07/18 04:09:37;;;;;;;0.30;0.30;;;;;;;20.80;71.64;98517.00;4968816;28;20133;-89
2023/07/18 04:12:05;;;;;;;0.30;0.30;;;;;;;20.92;71.55;98514.41;4969266;28;20450;-88
2023/07/18 04:14:35;;;;;;;0.20;0.20;;;;;;;20.89;71.25;98517.78;4950489;28;20048;-86
2023/07/18 04:17:02;;;;;;;0.30;0.30;;;;;;;20.68;71.09;98510.22;4983785;28;20051;-86
2023/07/18 04:19:30;;;;;;;0.30;0.30;;;;;;;20.47;71.67;98509.25;4992466;28;20054;-87
2023/07/18 04:21:58;;;;;;;0.20;0.20;;;;;;;20.31;72.77;98522.63;4992479;28;20142;-86
2023/07/18 04:24:25;;;;;;;0.30;0.30;;;;;;;20.21;73.63;98520.97;4992092;28;20543;-87
2023/07/18 04:26:52;;;;;;;0.30;0.30;;;;;;;20.17;74.24;98522.75;4975141;28;20057;-86
2023/07/18 04:29:19;;;;;;;0.30;0.30;;;;;;;20.19;74.40;98519.69;4991572;28;20050;-88
2023/07/18 04:31:46;;;;;;;0.30;0.30;;;;;;;20.28;74.31;98520.50;4994492;28;20046;-86
2023/07/18 04:34:15;;;;;;;0.30;0.30;;;;;;;20.31;74.09;98526.16;4977423;28;20145;-87
2023/07/18 04:36:42;;;;;;;0.30;0.30;;;;;;;20.41;74.23;98524.22;4977664;28;20057;-86
2023/07/18 04:39:10;;;;;;;0.30;0.30;;;;;;;20.52;73.71;98520.03;4993793;28;20057;-87
2023/07/18 04:41:37;;;;;;;0.22;0.22;;;;;;;20.51;73.42;98524.72;4978292;28;20050;-85
2023/07/18 04:44:20;;;;;;;0.30;0.30;;;;;;;20.44;73.96;98512.63;4964304;28;20112;-87
2023/07/18 04:46:47;;;;;;;0.30;0.30;;;;;;;20.51;74.31;98515.69;4953821;29;20043;-87
2023/07/18 04:49:15;;;;;;;0.30;0.30;;;;;;;20.60;74.27;98496.53;4962454;28;20047;-88
2023/07/18 04:51:43;;;;;;;0.30;0.30;;;;;;;20.91;73.69;98499.06;4960778;28;20502;-86
2023/07/18 04:54:10;;;;;;;0.30;0.30;;;;;;;21.14;72.42;98481.31;4960164;28;20426;-88
2023/07/18 04:56:38;;;;;;;0.30;0.30;;;;;;;21.53;71.76;98492.34;4953491;29;20050;-86
2023/07/18 04:59:05;;;;;;;0.30;0.30;;;;;;;21.75;70.65;98488.50;4963381;28;20062;-87
2023/07/18 05:01:32;;;;;;;0.30;0.30;;;;;;;21.80;69.85;98485.56;4963240;28;20101;-88
2023/07/18 05:04:00;;;;;;;0.30;0.30;;;;;;;21.64;69.79;98479.84;4956837;28;20047;-85
2023/07/18 05:06:30;;;;;;;0.30;0.30;;;;;;;21.46;70.79;98454.41;4960544;28;20082;-86
2023/07/18 05:09:01;;;;;;;0.30;0.30;;;;;;;21.80;70.09;98471.84;4957153;28;20062;-87
2023/07/18 05:11:28;;;;;;;0.30;0.30;;;;;;;21.82;69.88;98469.56;4948200;29;20047;-86
2023/07/18 05:13:58;;;;;;;0.30;0.30;;;;;;;21.84;70.05;98472.78;4962384;28;20054;-87
2023/07/18 05:16:26;;;;;;;0.20;0.20;;;;;;;21.95;69.85;98465.78;4955686;28;20093;-85
2023/07/18 05:18:56;;;;;;;0.30;0.30;;;;;;;22.03;69.59;98455.88;4952504;28;20157;-85
2023/07/18 05:21:23;;;;;;;0.30;0.30;;;;;;;22.20;69.16;98454.97;4955520;28;20086;-88
2023/07/18 05:23:51;;;;;;;0.30;0.30;;;;;;;22.28;69.20;98451.34;4952197;28;20058;-87
2023/07/18 05:26:18;;;;;;;0.30;0.30;;;;;;;22.46;68.84;98466.59;4960225;28;20501;-85
2023/07/18 05:28:45;;;;;;;0.25;0.25;;;;;;;22.39;68.50;98455.31;4969733;28;20078;-87
2023/07/18 05:31:12;;;;;;;0.30;0.30;;;;;;;22.06;68.75;98456.00;4923788;28;20054;-87
2023/07/18 05:33:41;;;;;;;0.30;0.30;;;;;;;22.06;69.22;98453.25;4930957;28;20047;-87
2023/07/18 05:36:10;;;;;;;0.30;0.30;;;;;;;22.28;68.77;98459.59;4925318;29;20137;-89
2023/07/18 05:38:37;;;;;;;0.30;0.30;;;;;;;22.52;68.05;98447.94;4956035;29;20063;-91
2023/07/18 05:41:04;;;;;;;0.30;0.30;;;;;;;22.75;67.34;98458.56;4959104;28;20125;-89
2023/07/18 05:43:31;;;;;;;0.20;0.20;;;;;;;22.75;67.18;98458.56;4974175;28;20101;-89
2023/07/18 05:45:59;;;;;;;0.20;0.20;;;;;;;22.63;67.92;98451.84;4975565;28;20043;-89
2023/07/18 05:48:27;;;;;;;0.30;0.30;;;;;;;22.66;67.96;98433.88;4968784;28;20533;-88
2023/07/18 05:50:55;;;;;;;0.20;0.20;;;;;;;22.56;68.08;98426.03;4955902;28;20151;-89
2023/07/18 05:53:23;;;;;;;0.20;0.20;;;;;;;22.53;68.06;98415.72;4976414;28;20101;-86
2023/07/18 05:55:51;;;;;;;0.20;0.20;;;;;;;22.63;68.30;98401.56;4960176;28;20055;-90
2023/07/18 05:58:19;;;;;;;0.30;0.30;;;;;;;22.87;67.97;98409.88;4956372;28;20467;-88
2023/07/18 06:00:53;;;;;;;0.20;0.20;;;;;;;23.04;67.33;98406.19;4941148;29;20053;-88
2023/07/18 06:03:22;;;;;;;0.22;0.22;;;;;;;22.93;67.45;98405.75;4958845;29;20048;-88
2023/07/18 06:05:54;;;;;;;0.20;0.20;;;;;;;23.15;67.11;98390.00;4983432;28;20047;-89
2023/07/18 06:08:24;;;;;;;0.20;0.20;;;;;;;23.19;66.41;98384.63;4968194;28;20055;-87
2023/07/18 06:10:56;;;;;;;0.20;0.20;;;;;;;23.01;67.34;98382.06;4968552;29;20051;-87
2023/07/18 06:13:24;;;;;;;0.20;0.20;;;;;;;22.92;68.82;98379.41;4977521;28;20054;-88
2023/07/18 06:15:51;;;;;;;0.20;0.20;;;;;;;22.89;68.55;98385.59;4962513;28;20061;-89
2023/07/18 06:18:18;;;;;;;0.20;0.20;;;;;;;22.92;67.58;98387.66;4946954;28;20043;-88
2023/07/18 06:20:47;;;;;;;0.30;0.30;;;;;;;23.11;66.96;98389.09;4978003;28;20042;-89
2023/07/18 06:23:16;;;;;;;0.20;0.20;;;;;;;23.36;65.90;98382.44;4979699;28;20043;-88
2023/07/18 06:25:43;;;;;;;0.20;0.20;;;;;;;23.65;65.43;98388.88;4936861;29;20052;-86
2023/07/18 06:28:11;;;;;;;0.20;0.20;;;;;;;23.69;64.99;98386.22;4940245;29;20119;-87
2023/07/18 06:30:44;;;;;;;0.20;0.20;;;;;;;23.74;64.85;98395.06;4939500;29;20052;-86
2023/07/18 06:33:11;;;;;;;0.20;0.20;;;;;;;23.97;64.49;98392.59;4931906;29;20080;-87
2023/07/18 06:35:38;;;;;;;0.20;0.20;;;;;;;23.78;64.08;98393.25;4924106;29;20127;-87
2023/07/18 06:38:05;;;;;;;0.20;0.20;;;;;;;23.56;64.45;98391.72;4926006;29;20470;-86
2023/07/18 06:40:32;;;;;;;0.20;0.20;;;;;;;23.44;65.59;98399.19;4925179;29;20067;-85
2023/07/18 06:42:59;;;;;;;0.20;0.20;;;;;;;23.43;65.92;98394.84;4909280;29;20058;-87
2023/07/18 06:45:26;;;;;;;0.20;0.20;;;;;;;23.46;65.93;98394.16;4917741;29;20154;-86
2023/07/18 06:47:53;;;;;;;0.20;0.20;;;;;;;23.70;65.39;98388.63;4898240;29;20534;-87
2023/07/18 06:50:20;;;;;;;0.20;0.20;;;;;;;23.81;64.56;98382.69;4904300;29;20519;-88
2023/07/18 06:52:47;;;;;;;0.20;0.20;;;;;;;24.04;64.99;98388.47;4915824;29;20486;-85
2023/07/18 06:55:16;;;;;;;0.20;0.20;;;;;;;24.26;63.82;98368.66;4907925;29;20463;-86
2023/07/18 06:57:43;;;;;;;0.20;0.20;;;;;;;24.42;64.36;98354.91;4969048;28;20142;-83
2023/07/18 07:00:12;;;;;;;0.20;0.20;;;;;;;24.56;62.82;98355.34;4974732;28;20066;-86
2023/07/18 07:02:39;;;;;;;0.20;0.20;;;;;;;24.57;62.66;98348.66;4941422;28;20070;-84
2023/07/18 07:05:06;;;;;;;0.28;0.28;;;;;;;24.64;62.50;98348.84;4968560;28;20414;-85
2023/07/18 07:07:33;;;;;;;0.20;0.20;;;;;;;24.56;63.00;98343.47;4968733;28;20054;-85
2023/07/18 07:10:01;;;;;;;0.20;0.20;;;;;;;24.50;62.40;98342.94;4954537;28;20143;-85
2023/07/18 07:12:33;;;;;;;0.20;0.20;;;;;;;24.56;62.74;98344.28;4950341;28;20130;-86
2023/07/18 07:15:03;;;;;;;0.20;0.20;;;;;;;24.89;62.49;98343.19;4954947;28;20102;-84
2023/07/18 07:17:32;;;;;;;0.20;0.20;;;;;;;25.01;61.42;98328.47;4977286;28;20051;-85
2023/07/18 07:20:00;;;;;;;0.20;0.20;;;;;;;25.20;60.48;98341.59;4960871;28;20042;-84
2023/07/18 07:22:30;;;;;;;0.20;0.20;;;;;;;25.32;59.48;98337.91;4968583;28;20142;-85
2023/07/18 07:24:59;;;;;;;0.13;0.13;;;;;;;25.27;59.45;98331.53;4965385;28;20055;-85
2023/07/18 07:27:26;;;;;;;0.20;0.20;;;;;;;25.34;58.92;98325.34;4970447;28;20047;-87
2023/07/18 07:29:53;;;;;;;0.20;0.20;;;;;;;25.38;58.71;98308.88;4955802;29;20093;-86
2023/07/18 07:32:20;;;;;;;0.20;0.20;;;;;;;25.58;59.11;98329.06;4948052;29;20051;-85
2023/07/18 07:34:47;;;;;;;0.20;0.20;;;;;;;25.76;58.25;98323.91;4940510;29;20047;-85
2023/07/18 07:37:15;;;;;;;0.20;0.20;;;;;;;25.91;58.15;98301.78;4922399;29;20086;-86
2023/07/18 07:39:43;;;;;;;0.20;0.20;;;;;;;26.08;56.24;98308.84;4948867;29;20701;-85
2023/07/18 07:42:11;;;;;;;0.20;0.20;;;;;;;26.05;55.56;98297.69;4933628;29;20054;-85
2023/07/18 07:44:38;;;;;;;0.20;0.20;;;;;;;26.26;55.59;98302.84;4933979;29;20055;-85
2023/07/18 07:47:05;;;;;;;0.20;0.20;;;;;;;26.69;54.51;98307.22;4940597;29;20047;-86
2023/07/18 07:49:32;;;;;;;0.20;0.20;;;;;;;26.76;54.23;98298.25;4919276;29;20421;-86
2023/07/18 07:52:02;;;;;;;0.20;0.20;;;;;;;26.88;54.40;98286.97;4928591;29;20047;-86
2023/07/18 07:54:29;;;;;;;0.20;0.20;;;;;;;26.98;53.72;98289.13;4954409;29;20499;-86
2023/07/18 07:56:56;;;;;;;0.20;0.20;;;;;;;26.99;53.66;98281.59;4953863;29;20071;-87
2023/07/18 07:59:23;;;;;;;0.30;0.30;;;;;;;27.07;53.67;98275.03;4954779;29;20090;-87
2023/07/18 08:01:50;;;;;;;0.20;0.20;;;;;;;27.45;52.95;98282.34;4945102;29;20432;-86
2023/07/18 08:04:19;;;;;;;0.20;0.20;;;;;;;27.49;52.11;98268.53;4935638;29;20075;-83
2023/07/18 08:06:47;;;;;;;0.20;0.20;;;;;;;27.76;51.67;98257.41;4941056;29;20047;-86
2023/07/18 08:09:15;;;;;;;0.20;0.20;;;;;;;27.64;51.38;98281.41;4945918;28;20050;-85
2023/07/18 08:11:42;;;;;;;0.20;0.20;;;;;;;27.51;51.37;98270.94;4952928;29;20055;-85
2023/07/18 08:14:09;;;;;;;0.20;0.20;;;;;;;27.77;51.26;98261.75;4953981;28;20051;-87
2023/07/18 08:16:36;;;;;;;0.20;0.20;;;;;;;28.07;50.52;98264.53;4954221;28;20102;-86
2023/07/18 08:19:03;;;;;;;0.20;0.20;;;;;;;27.97;50.56;98277.09;4954389;29;20661;-88
2023/07/18 08:21:30;;;;;;;0.20;0.20;;;;;;;27.90;51.32;98267.88;4949800;28;20536;-87
2023/07/18 08:23:57;;;;;;;0.20;0.20;;;;;;;27.66;50.96;98261.63;4971838;28;20054;-86
2023/07/18 08:26:24;;;;;;;0.28;0.28;;;;;;;27.75;52.26;98253.84;4973949;28;20102;-87
2023/07/18 08:28:51;;;;;;;0.25;0.25;;;;;;;28.05;50.78;98264.09;4973725;28;20237;-86
2023/07/18 08:31:19;;;;;;;0.30;0.30;;;;;;;27.69;51.63;98260.09;4970476;28;20043;-87
2023/07/18 08:33:46;;;;;;;0.30;0.30;;;;;;;28.22;50.35;98251.63;4936371;29;20051;-86
2023/07/18 08:36:13;;;;;;;0.20;0.20;;;;;;;28.66;49.49;98237.81;4953936;29;20089;-88
2023/07/18 08:38:46;;;;;;;0.20;0.20;;;;;;;29.10;48.45;98239.75;4953897;29;20090;-86
2023/07/18 08:41:17;;;;;;;0.30;0.30;;;;;;;29.00;48.52;98240.44;4952855;29;20058;-86
2023/07/18 08:43:45;;;;;;;0.22;0.22;;;;;;;28.75;48.60;98240.25;4952308;29;20074;-87
2023/07/18 08:46:14;;;;;;;0.30;0.30;;;;;;;28.78;48.32;98231.13;4936807;29;20577;-87
2023/07/18 08:48:43;;;;;;;0.20;0.20;;;;;;;28.63;48.17;98226.66;4936404;29;20054;-88
2023/07/18 08:51:11;;;;;;;0.30;0.30;;;;;;;29.08;47.54;98233.78;4954111;29;20055;-86
2023/07/18 08:53:39;;;;;;;0.20;0.20;;;;;;;29.45;46.51;98220.88;4953745;29;20055;-87
2023/07/18 08:56:10;;;;;;;0.20;0.20;;;;;;;29.28;46.30;98214.84;4936929;29;20146;-87
2023/07/18 08:58:37;;;;;;;0.20;0.20;;;;;;;29.21;47.34;98220.34;4936490;29;20480;-87
2023/07/18 09:01:09;;;;;;;0.20;0.20;;;;;;;29.79;46.68;98211.13;4937179;29;20074;-87
2023/07/18 09:03:37;;;;;;;0.20;0.20;;;;;;;30.14;45.24;98208.84;4953630;28;20073;-86
2023/07/18 09:06:18;;;;;;;0.30;0.30;;;;;;;30.37;44.61;98208.50;4931227;29;20048;-85
2023/07/18 09:08:46;;;;;;;0.30;0.30;;;;;;;30.41;44.21;98206.50;4947295;29;20043;-85
2023/07/18 09:11:18;;;;;;;0.30;0.30;;;;;;;30.01;45.22;98205.63;4952550;29;20049;-85
2023/07/18 09:13:47;;;;;;;0.30;0.30;;;;;;;29.94;45.25;98200.06;4952303;28;20055;-84
2023/07/18 09:16:17;;;;;;;0.30;0.30;;;;;;;29.90;45.38;98202.00;4952474;28;20537;-83
2023/07/18 09:18:48;;;;;;;0.30;0.30;;;;;;;29.95;45.30;98201.63;4949604;28;20078;-85
2023/07/18 09:21:18;;;;;;;0.20;0.20;;;;;;;30.14;44.92;98189.38;4940465;28;20148;-86
2023/07/18 09:23:46;;;;;;;0.20;0.20;;;;;;;30.44;44.08;98186.25;4931556;29;20109;-85
2023/07/18 09:26:15;;;;;;;0.20;0.20;;;;;;;30.40;44.30;98165.97;4967571;28;20514;-85
2023/07/18 09:28:44;;;;;;;0.30;0.30;;;;;;;30.60;43.59;98171.91;4951579;28;20047;-86
2023/07/18 09:31:19;;;;;;;0.30;0.30;;;;;;;31.11;42.77;98179.03;4959702;28;20063;-84
2023/07/18 09:33:47;;;;;;;0.30;0.30;;;;;;;31.88;41.26;98169.97;4958022;28;20042;-86
2023/07/18 09:36:23;;;;;;;0.20;0.20;;;;;;;31.26;42.68;98166.63;4968426;28;20046;-84
2023/07/18 09:38:52;;;;;;;0.30;0.30;;;;;;;32.05;41.61;98166.31;4950167;28;20074;-86
2023/07/18 09:41:20;;;;;;;0.20;0.20;;;;;;;32.60;40.70;98159.94;4957614;28;20117;-86
2023/07/18 09:43:49;;;;;;;0.30;0.30;;;;;;;33.37;38.22;98157.94;4957189;28;20062;-87
2023/07/18 09:46:17;;;;;;;0.30;0.30;;;;;;;33.26;38.25;98146.13;4966606;28;20043;-85
2023/07/18 09:48:45;;;;;;;0.10;0.10;;;;;;;32.50;39.95;98143.28;4945470;28;20057;-85
2023/07/18 09:51:20;;;;;;;0.17;0.17;;;;;;;31.47;41.23;98148.28;4949983;28;20059;-85
2023/07/18 09:53:48;;;;;;;0.10;0.10;;;;;;;31.37;41.90;98154.66;4958563;28;20149;-88
2023/07/18 09:56:17;;;;;;;0.22;0.22;;;;;;;31.09;42.64;98151.59;4950478;28;20051;-88
2023/07/18 09:58:48;;;;;;;0.10;0.10;;;;;;;30.56;42.51;98148.84;4946910;28;20857;-85
2023/07/18 10:01:19;;;;;;;0.20;0.20;;;;;;;29.65;44.59;98136.03;4968245;28;20113;-86
2023/07/18 10:03:52;;;;;;;0.30;0.30;;;;;;;30.15;44.21;98138.09;4948170;28;20097;-85
2023/07/18 10:06:22;;;;;;;0.30;0.30;;;;;;;30.80;42.91;98124.97;4956470;28;20055;-86
2023/07/18 10:08:49;;;;;;;0.30;0.30;;;;;;;32.30;39.72;98115.09;4948773;29;20106;-83
2023/07/18 10:11:16;;;;;;;0.30;0.30;;;;;;;32.50;38.90;98106.97;4947883;29;20047;-84
2023/07/18 10:14:05;;;;;;;0.20;0.20;;;;;;;30.41;42.72;98103.53;4614710;28;10000340;-84
2023/07/18 10:16:41;;;;;;;0.20;0.20;;;;;;;30.25;43.22;98101.16;4956405;28;20469;-85
2023/07/18 10:19:18;;;;;;;0.10;0.10;;;;;;;29.71;44.20;98089.97;4948090;29;20047;-87
2023/07/18 10:21:47;;;;;;;0.10;0.10;;;;;;;29.18;45.50;98093.34;4950315;29;20596;-85
2023/07/18 10:24:21;;;;;;;0.10;0.10;;;;;;;28.70;46.47;98085.94;4947636;28;20422;-87
2023/07/18 10:26:51;;;;;;;0.10;0.10;;;;;;;28.24;47.28;98080.06;4949250;29;20047;-84
2023/07/18 10:29:23;;;;;;;0.10;0.10;;;;;;;27.86;48.15;98066.28;4954704;28;20050;-85
2023/07/18 10:31:53;;;;;;;0.10;0.10;;;;;;;27.68;48.82;98054.19;4939468;29;20043;-87
2023/07/18 10:34:20;;;;;;;0.10;0.10;;;;;;;27.58;49.07;98061.22;4931996;29;20055;-84
2023/07/18 10:37:01;;;;;;;0.20;0.20;;;;;;;27.51;50.11;98063.13;4947622;28;20059;-86
2023/07/18 10:39:44;;;;;;;0.10;0.10;;;;;;;27.34;50.64;98047.91;4953422;28;20065;-85
2023/07/18 10:42:25;;;;;;;0.10;0.10;;;;;;;27.12;52.01;98055.94;4964537;28;20079;-84
2023/07/18 10:45:00;;;;;;;0.10;0.10;;;;;;;27.07;56.00;98070.13;4955464;29;20047;-86
2023/07/18 10:47:31;;;;;;;0.20;0.20;;;;;;;25.34;67.85;98059.44;4956013;28;20525;-86
2023/07/18 10:49:59;;;;;;;0.20;0.20;;;;;;;24.29;70.20;98077.66;4964460;28;20065;-85
2023/07/18 10:52:26;;;;;;;0.20;0.20;;;;;;;24.04;71.19;98064.06;4959220;28;20171;-84
2023/07/18 10:55:07;;;;;;;0.20;0.20;;;;;;;23.99;69.79;98050.56;4955842;28;20047;-85
2023/07/18 10:57:36;;;;;;;0.20;0.20;;;;;;;24.14;68.88;98055.28;4953993;28;20055;-84
2023/07/18 11:00:05;;;;;;;0.20;0.20;;;;;;;24.43;69.12;98050.41;4962146;28;20545;-84
2023/07/18 11:02:37;;;;;;;0.20;0.20;;;;;;;24.53;67.87;98051.84;4955461;29;20174;-84
2023/07/18 11:05:12;;;;;;;0.20;0.20;;;;;;;24.68;68.54;98039.16;4955831;28;20074;-83
2023/07/18 11:07:57;;;;;;;0.20;0.20;;;;;;;24.88;69.41;98038.81;4963529;28;20429;-85
2023/07/18 11:10:24;;;;;;;0.20;0.20;;;;;;;24.71;66.44;98025.44;4974945;28;20078;-86
2023/07/18 11:12:52;;;;;;;0.20;0.20;;;;;;;24.65;67.82;98027.69;4974206;28;20074;-84
2023/07/18 11:15:21;;;;;;;0.17;0.17;;;;;;;24.82;67.68;98029.22;4956404;28;20054;-84
2023/07/18 11:17:49;;;;;;;0.10;0.10;;;;;;;24.93;66.74;98028.66;4962488;28;20075;-84
2023/07/18 11:20:16;;;;;;;0.20;0.20;;;;;;;24.80;65.73;98031.56;4955878;28;20146;-85
2023/07/18 11:22:43;;;;;;;0.20;0.20;;;;;;;24.72;65.87;98020.75;4968881;28;20055;-82
2023/07/18 11:25:11;;;;;;;0.20;0.20;;;;;;;24.57;65.71;98016.88;4950083;28;20066;-84
2023/07/18 11:27:38;;;;;;;0.10;0.10;;;;;;;24.42;67.46;98004.69;4964516;28;20059;-84
2023/07/18 11:30:09;;;;;;;0.10;0.10;;;;;;;24.31;68.12;98017.47;4952451;29;20051;-85
2023/07/18 11:32:39;;;;;;;0.10;0.10;;;;;;;24.18;68.23;98014.81;4948140;29;20058;-83
2023/07/18 11:35:11;;;;;;;0.20;0.20;;;;;;;24.06;68.08;98025.94;4952448;28;20046;-83
2023/07/18 11:37:43;;;;;;;0.10;0.10;;;;;;;23.98;68.62;98013.97;4944665;28;20050;-84
2023/07/18 11:40:11;;;;;;;0.10;0.10;;;;;;;23.94;68.78;98010.31;4949107;28;20054;-82